sensor_id;sensor_type;location;lat;lon;timestamp;pressure;altitude;pressure_sealevel;temperature
60615;BMP280;46444;45.590;5.284;2022-07-19T00:00:04;98845.44;;;27.98
60615;BMP280;46444;45.590;5.284;2022-07-19T00:02:33;98844.66;;;27.98
60615;BMP280;46444;45.590;5.284;2022-07-19T00:04:58;98846.16;;;27.95
60615;BMP280;46444;45.590;5.284;2022-07-19T00:07:26;98843.03;;;27.97
60615;BMP280;46444;45.590;5.284;2022-07-19T00:09:55;98846.25;;;27.99
60615;BMP280;46444;45.590;5.284;2022-07-19T00:12:20;98843.94;;;28.01
60615;BMP280;46444;45.590;5.284;2022-07-19T00:14:46;98846.34;;;28.02
60615;BMP280;46444;45.590;5.284;2022-07-19T00:17:11;98844.75;;;28.01
60615;BMP280;46444;45.590;5.284;2022-07-19T00:19:37;98844.75;;;28.01
60615;BMP280;46444;45.590;5.284;2022-07-19T00:22:02;98845.19;;;28.03
60615;BMP280;46444;45.590;5.284;2022-07-19T00:24:28;98843.16;;;28.00
60615;BMP280;46444;45.590;5.284;2022-07-19T00:26:53;98846.59;;;27.97
60615;BMP280;46444;45.590;5.284;2022-07-19T00:29:18;98843.84;;;27.97
60615;BMP280;46444;45.590;5.284;2022-07-19T00:31:44;98848.91;;;27.95
60615;BMP280;46444;45.590;5.284;2022-07-19T00:34:09;98837.09;;;27.95
60615;BMP280;46444;45.590;5.284;2022-07-19T00:36:35;98836.75;;;27.96
60615;BMP280;46444;45.590;5.284;2022-07-19T00:39:00;98839.94;;;27.98
60615;BMP280;46444;45.590;5.284;2022-07-19T00:41:26;98839.25;;;28.01
60615;BMP280;46444;45.590;5.284;2022-07-19T00:43:51;98837.75;;;28.04
60615;BMP280;46444;45.590;5.284;2022-07-19T00:46:19;98840.13;;;28.05
60615;BMP280;46444;45.590;5.284;2022-07-19T00:48:45;98841.53;;;27.99
60615;BMP280;46444;45.590;5.284;2022-07-19T00:51:12;98838.09;;;28.02
60615;BMP280;46444;45.590;5.284;2022-07-19T00:53:39;98837.75;;;28.04
60615;BMP280;46444;45.590;5.284;2022-07-19T00:56:06;98835.34;;;28.02
60615;BMP280;46444;45.590;5.284;2022-07-19T00:58:34;98840.13;;;28.05
60615;BMP280;46444;45.590;5.284;2022-07-19T01:01:00;98833.53;;;28.06
60615;BMP280;46444;45.590;5.284;2022-07-19T01:03:26;98830.66;;;28.03
60615;BMP280;46444;45.590;5.284;2022-07-19T01:05:52;98833.03;;;28.04
60615;BMP280;46444;45.590;5.284;2022-07-19T01:08:18;98831.44;;;28.03
60615;BMP280;46444;45.590;5.284;2022-07-19T01:10:43;98837.75;;;28.04
60615;BMP280;46444;45.590;5.284;2022-07-19T01:13:09;98830.19;;;28.01
60615;BMP280;46444;45.590;5.284;2022-07-19T01:15:37;98834.44;;;27.98
60615;BMP280;46444;45.590;5.284;2022-07-19T01:18:02;98832.59;;;28.02
60615;BMP280;46444;45.590;5.284;2022-07-19T01:20:28;98831.34;;;28.00
60615;BMP280;46444;45.590;5.284;2022-07-19T01:22:53;98830.91;;;27.98
60615;BMP280;46444;45.590;5.284;2022-07-19T01:25:22;98838.34;;;27.97
60615;BMP280;46444;45.590;5.284;2022-07-19T01:27:48;98826.53;;;27.97
60615;BMP280;46444;45.590;5.284;2022-07-19T01:30:17;98827.69;;;27.96
60615;BMP280;46444;45.590;5.284;2022-07-19T01:32:43;98832.03;;;27.97
60615;BMP280;46444;45.590;5.284;2022-07-19T01:35:08;98836.66;;;27.93
60615;BMP280;46444;45.590;5.284;2022-07-19T01:37:35;98831.94;;;27.93
60615;BMP280;46444;45.590;5.284;2022-07-19T01:40:02;98839.75;;;27.91
60615;BMP280;46444;45.590;5.284;2022-07-19T01:42:28;98832.66;;;27.90
60615;BMP280;46444;45.590;5.284;2022-07-19T01:44:53;98841.22;;;27.89
60615;BMP280;46444;45.590;5.284;2022-07-19T01:47:19;98844.09;;;27.92
60615;BMP280;46444;45.590;5.284;2022-07-19T01:49:44;98840.56;;;27.92
60615;BMP280;46444;45.590;5.284;2022-07-19T01:52:09;98849.03;;;27.87
60615;BMP280;46444;45.590;5.284;2022-07-19T01:54:35;98841.94;;;27.86
60615;BMP280;46444;45.590;5.284;2022-07-19T01:57:00;98835.63;;;27.85
60615;BMP280;46444;45.590;5.284;2022-07-19T01:59:25;98830.50;;;27.84
60615;BMP280;46444;45.590;5.284;2022-07-19T02:01:51;98841.84;;;27.82
60615;BMP280;46444;45.590;5.284;2022-07-19T02:04:16;98834.72;;;27.81
60615;BMP280;46444;45.590;5.284;2022-07-19T02:06:42;98824.56;;;27.82
60615;BMP280;46444;45.590;5.284;2022-07-19T02:09:07;98836.22;;;27.79
60615;BMP280;46444;45.590;5.284;2022-07-19T02:11:32;98835.88;;;27.80
60615;BMP280;46444;45.590;5.284;2022-07-19T02:14:05;98833.59;;;27.82
60615;BMP280;46444;45.590;5.284;2022-07-19T02:16:31;98823.75;;;27.81
60615;BMP280;46444;45.590;5.284;2022-07-19T02:18:56;98833.94;;;27.81
60615;BMP280;46444;45.590;5.284;2022-07-19T02:21:22;98833.94;;;27.81
60615;BMP280;46444;45.590;5.284;2022-07-19T02:23:47;98818.25;;;27.81
60615;BMP280;46444;45.590;5.284;2022-07-19T02:26:12;98821.47;;;27.83
60615;BMP280;46444;45.590;5.284;2022-07-19T02:28:38;98816.66;;;27.80
60615;BMP280;46444;45.590;5.284;2022-07-19T02:31:04;98816.31;;;27.82
60615;BMP280;46444;45.590;5.284;2022-07-19T02:33:30;98815.06;;;27.79
60615;BMP280;46444;45.590;5.284;2022-07-19T02:35:55;98813.91;;;27.80
60615;BMP280;46444;45.590;5.284;2022-07-19T02:38:20;98826.84;;;27.80
60615;BMP280;46444;45.590;5.284;2022-07-19T02:40:46;98819.59;;;27.75
60615;BMP280;46444;45.590;5.284;2022-07-19T02:43:11;98819.16;;;27.73
60615;BMP280;46444;45.590;5.284;2022-07-19T02:45:37;98806.25;;;27.74
60615;BMP280;46444;45.590;5.284;2022-07-19T02:48:02;98805.44;;;27.73
60615;BMP280;46444;45.590;5.284;2022-07-19T02:50:32;98822.72;;;27.74
60615;BMP280;46444;45.590;5.284;2022-07-19T02:52:58;98818.00;;;27.74
60615;BMP280;46444;45.590;5.284;2022-07-19T02:55:23;98827.41;;;27.73
60615;BMP280;46444;45.590;5.284;2022-07-19T02:57:48;98823.50;;;27.74
60615;BMP280;46444;45.590;5.284;2022-07-19T03:00:14;98824.31;;;27.75
60615;BMP280;46444;45.590;5.284;2022-07-19T03:02:40;98819.97;;;27.74
60615;BMP280;46444;45.590;5.284;2022-07-19T03:05:06;98829.34;;;27.73
60615;BMP280;46444;45.590;5.284;2022-07-19T03:07:32;98831.31;;;27.72
60615;BMP280;46444;45.590;5.284;2022-07-19T03:09:57;98828.13;;;27.70
60615;BMP280;46444;45.590;5.284;2022-07-19T03:12:23;98835.66;;;27.73
60615;BMP280;46444;45.590;5.284;2022-07-19T03:14:49;98835.31;;;27.75
60615;BMP280;46444;45.590;5.284;2022-07-19T03:17:14;98831.31;;;27.72
60615;BMP280;46444;45.590;5.284;2022-07-19T03:19:40;98827.75;;;27.72
60615;BMP280;46444;45.590;5.284;2022-07-19T03:22:05;98832.34;;;27.68
60615;BMP280;46444;45.590;5.284;2022-07-19T03:24:31;98827.97;;;27.67
60615;BMP280;46444;45.590;5.284;2022-07-19T03:26:56;98833.94;;;27.69
60615;BMP280;46444;45.590;5.284;2022-07-19T03:29:22;98827.88;;;27.63
60615;BMP280;46444;45.590;5.284;2022-07-19T03:31:47;98832.28;;;27.52
60615;BMP280;46444;45.590;5.284;2022-07-19T03:34:13;98826.66;;;27.49
60615;BMP280;46444;45.590;5.284;2022-07-19T03:36:38;98829.16;;;27.54
60615;BMP280;46444;45.590;5.284;2022-07-19T03:39:03;98837.28;;;27.50
60615;BMP280;46444;45.590;5.284;2022-07-19T03:41:29;98835.81;;;27.41
60615;BMP280;46444;45.590;5.284;2022-07-19T03:43:54;98846.56;;;27.46
60615;BMP280;46444;45.590;5.284;2022-07-19T03:46:20;98836.16;;;27.39
60615;BMP280;46444;45.590;5.284;2022-07-19T03:48:46;98841.09;;;27.34
60615;BMP280;46444;45.590;5.284;2022-07-19T03:51:12;98839.84;;;27.31
60615;BMP280;46444;45.590;5.284;2022-07-19T03:53:38;98844.78;;;27.26
60615;BMP280;46444;45.590;5.284;2022-07-19T03:56:04;98843.16;;;27.25
60615;BMP280;46444;45.590;5.284;2022-07-19T03:58:29;98843.50;;;27.23
60615;BMP280;46444;45.590;5.284;2022-07-19T04:00:55;98843.03;;;27.21
60615;BMP280;46444;45.590;5.284;2022-07-19T04:03:20;98843.41;;;27.20
60615;BMP280;46444;45.590;5.284;2022-07-19T04:05:46;98840.84;;;27.15
60615;BMP280;46444;45.590;5.284;2022-07-19T04:08:11;98848.28;;;27.14
60615;BMP280;46444;45.590;5.284;2022-07-19T04:10:36;98842.78;;;27.14
60615;BMP280;46444;45.590;5.284;2022-07-19T04:13:02;98840.97;;;27.06
60615;BMP280;46444;45.590;5.284;2022-07-19T04:15:28;98852.50;;;27.00
60615;BMP280;46444;45.590;5.284;2022-07-19T04:17:53;98848.50;;;26.97
60615;BMP280;46444;45.590;5.284;2022-07-19T04:20:18;98853.28;;;26.88
60615;BMP280;46444;45.590;5.284;2022-07-19T04:22:44;98847.94;;;26.92
60615;BMP280;46444;45.590;5.284;2022-07-19T04:25:09;98845.84;;;26.89
60615;BMP280;46444;45.590;5.284;2022-07-19T04:27:35;98859.22;;;26.90
60615;BMP280;46444;45.590;5.284;2022-07-19T04:30:00;98859.13;;;26.87
60615;BMP280;46444;45.590;5.284;2022-07-19T04:32:26;98853.53;;;26.95
60615;BMP280;46444;45.590;5.284;2022-07-19T04:34:52;98867.91;;;26.92
60615;BMP280;46444;45.590;5.284;2022-07-19T04:37:18;98859.69;;;26.92
60615;BMP280;46444;45.590;5.284;2022-07-19T04:39:43;98865.16;;;26.92
60615;BMP280;46444;45.590;5.284;2022-07-19T04:42:09;98870.78;;;26.96
60615;BMP280;46444;45.590;5.284;2022-07-19T04:44:34;98876.50;;;26.91
60615;BMP280;46444;45.590;5.284;2022-07-19T04:47:00;98867.91;;;26.92
60615;BMP280;46444;45.590;5.284;2022-07-19T04:49:25;98867.34;;;26.99
60615;BMP280;46444;45.590;5.284;2022-07-19T04:51:51;98871.78;;;26.91
60615;BMP280;46444;45.590;5.284;2022-07-19T04:54:16;98871.91;;;26.95
60615;BMP280;46444;45.590;5.284;2022-07-19T04:56:42;98875.91;;;26.97
60615;BMP280;46444;45.590;5.284;2022-07-19T04:59:07;98883.91;;;26.90
60615;BMP280;46444;45.590;5.284;2022-07-19T05:01:33;98880.50;;;26.93
60615;BMP280;46444;45.590;5.284;2022-07-19T05:03:59;98878.31;;;26.99
60615;BMP280;46444;45.590;5.284;2022-07-19T05:06:24;98883.00;;;26.98
60615;BMP280;46444;45.590;5.284;2022-07-19T05:08:50;98877.06;;;26.96
60615;BMP280;46444;45.590;5.284;2022-07-19T05:11:17;98883.69;;;26.95
60615;BMP280;46444;45.590;5.284;2022-07-19T05:13:42;98884.97;;;26.98
60615;BMP280;46444;45.590;5.284;2022-07-19T05:16:07;98886.22;;;27.00
60615;BMP280;46444;45.590;5.284;2022-07-19T05:18:33;98883.81;;;26.99
60615;BMP280;46444;45.590;5.284;2022-07-19T05:20:58;98886.22;;;27.00
60615;BMP280;46444;45.590;5.284;2022-07-19T05:23:24;98891.59;;;26.97
60615;BMP280;46444;45.590;5.284;2022-07-19T05:25:49;98889.41;;;27.02
60615;BMP280;46444;45.590;5.284;2022-07-19T05:28:14;98892.50;;;27.01
60615;BMP280;46444;45.590;5.284;2022-07-19T05:30:40;98883.94;;;27.02
60615;BMP280;46444;45.590;5.284;2022-07-19T05:33:07;98887.94;;;27.05
60615;BMP280;46444;45.590;5.284;2022-07-19T05:35:33;98899.03;;;27.08
60615;BMP280;46444;45.590;5.284;2022-07-19T05:37:58;98891.94;;;27.07
60615;BMP280;46444;45.590;5.284;2022-07-19T05:40:27;98891.38;;;27.14
60615;BMP280;46444;45.590;5.284;2022-07-19T05:42:52;98887.38;;;27.11
60615;BMP280;46444;45.590;5.284;2022-07-19T05:45:18;98888.28;;;27.15
60615;BMP280;46444;45.590;5.284;2022-07-19T05:47:43;98890.81;;;27.20
60615;BMP280;46444;45.590;5.284;2022-07-19T05:50:09;98883.75;;;27.19
60615;BMP280;46444;45.590;5.284;2022-07-19T05:52:35;98885.44;;;27.24
60615;BMP280;46444;45.590;5.284;2022-07-19T05:55:00;98885.56;;;27.27
60615;BMP280;46444;45.590;5.284;2022-07-19T05:57:26;98890.81;;;27.32
60615;BMP280;46444;45.590;5.284;2022-07-19T05:59:51;98882.59;;;27.32
60615;BMP280;46444;45.590;5.284;2022-07-19T06:02:16;98893.25;;;27.34
60615;BMP280;46444;45.590;5.284;2022-07-19T06:04:42;98892.91;;;27.35
60615;BMP280;46444;45.590;5.284;2022-07-19T06:07:08;98892.19;;;27.38
60615;BMP280;46444;45.590;5.284;2022-07-19T06:09:34;98893.00;;;27.39
60615;BMP280;46444;45.590;5.284;2022-07-19T06:11:59;98884.88;;;27.42
60615;BMP280;46444;45.590;5.284;2022-07-19T06:14:24;98895.63;;;27.47
60615;BMP280;46444;45.590;5.284;2022-07-19T06:16:50;98888.28;;;27.51
60615;BMP280;46444;45.590;5.284;2022-07-19T06:19:15;98888.53;;;27.58
60615;BMP280;46444;45.590;5.284;2022-07-19T06:21:43;98896.53;;;27.63
60615;BMP280;46444;45.590;5.284;2022-07-19T06:24:09;98893.53;;;27.68
60615;BMP280;46444;45.590;5.284;2022-07-19T06:26:34;98884.25;;;27.73
60615;BMP280;46444;45.590;5.284;2022-07-19T06:29:00;98883.72;;;27.79
60615;BMP280;46444;45.590;5.284;2022-07-19T06:31:25;98887.38;;;27.83
60615;BMP280;46444;45.590;5.284;2022-07-19T06:33:51;98885.53;;;27.87
60615;BMP280;46444;45.590;5.284;2022-07-19T06:36:17;98887.69;;;27.94
60615;BMP280;46444;45.590;5.284;2022-07-19T06:38:43;98883.56;;;28.00
60615;BMP280;46444;45.590;5.284;2022-07-19T06:41:10;98891.91;;;28.03
60615;BMP280;46444;45.590;5.284;2022-07-19T06:43:36;98883.84;;;28.10
60615;BMP280;46444;45.590;5.284;2022-07-19T06:46:02;98888.66;;;28.13
60615;BMP280;46444;45.590;5.284;2022-07-19T06:48:28;98878.22;;;28.19
60615;BMP280;46444;45.590;5.284;2022-07-19T06:50:56;98878.31;;;28.22
60615;BMP280;46444;45.590;5.284;2022-07-19T06:53:21;98880.81;;;28.27
60615;BMP280;46444;45.590;5.284;2022-07-19T06:55:47;98885.25;;;28.32
60615;BMP280;46444;45.590;5.284;2022-07-19T06:58:12;98885.34;;;28.35
60615;BMP280;46444;45.590;5.284;2022-07-19T07:00:38;98887.88;;;28.40
60615;BMP280;46444;45.590;5.284;2022-07-19T07:03:04;98886.88;;;28.45
60615;BMP280;46444;45.590;5.284;2022-07-19T07:05:29;98883.84;;;28.50
60615;BMP280;46444;45.590;5.284;2022-07-19T07:07:55;98885.09;;;28.52
60615;BMP280;46444;45.590;5.284;2022-07-19T07:10:20;98879.34;;;28.57
60615;BMP280;46444;45.590;5.284;2022-07-19T07:12:46;98892.81;;;28.62
60615;BMP280;46444;45.590;5.284;2022-07-19T07:15:12;98888.66;;;28.68
60615;BMP280;46444;45.590;5.284;2022-07-19T07:17:37;98895.06;;;28.72
60615;BMP280;46444;45.590;5.284;2022-07-19T07:20:04;98895.78;;;28.85
60615;BMP280;46444;45.590;5.284;2022-07-19T07:22:31;98895.78;;;28.85
60615;BMP280;46444;45.590;5.284;2022-07-19T07:24:56;98899.78;;;28.87
60615;BMP280;46444;45.590;5.284;2022-07-19T07:27:22;98894.38;;;28.91
60615;BMP280;46444;45.590;5.284;2022-07-19T07:29:50;98890.59;;;28.95
60615;BMP280;46444;45.590;5.284;2022-07-19T07:32:16;98888.72;;;28.99
60615;BMP280;46444;45.590;5.284;2022-07-19T07:34:41;98885.88;;;29.11
60615;BMP280;46444;45.590;5.284;2022-07-19T07:37:07;98885.03;;;29.07
60615;BMP280;46444;45.590;5.284;2022-07-19T07:39:32;98879.13;;;29.09
60615;BMP280;46444;45.590;5.284;2022-07-19T07:41:57;98874.19;;;29.14
60615;BMP280;46444;45.590;5.284;2022-07-19T07:44:23;98881.72;;;29.17
60615;BMP280;46444;45.590;5.284;2022-07-19T07:46:57;98868.03;;;29.21
60615;BMP280;46444;45.590;5.284;2022-07-19T07:49:26;98872.50;;;29.25
60615;BMP280;46444;45.590;5.284;2022-07-19T07:51:52;98871.75;;;29.28
60615;BMP280;46444;45.590;5.284;2022-07-19T07:54:17;98872.66;;;29.32
60615;BMP280;46444;45.590;5.284;2022-07-19T07:56:43;98864.84;;;29.34
60615;BMP280;46444;45.590;5.284;2022-07-19T07:59:08;98864.56;;;29.39
60615;BMP280;46444;45.590;5.284;2022-07-19T08:01:34;98857.19;;;29.43
60615;BMP280;46444;45.590;5.284;2022-07-19T08:04:00;98857.63;;;29.45
60615;BMP280;46444;45.590;5.284;2022-07-19T08:06:26;98854.94;;;29.49
60615;BMP280;46444;45.590;5.284;2022-07-19T08:08:51;98858.25;;;29.54
60615;BMP280;46444;45.590;5.284;2022-07-19T08:11:17;98854.03;;;29.60
60615;BMP280;46444;45.590;5.284;2022-07-19T08:13:42;98852.19;;;29.64
60615;BMP280;46444;45.590;5.284;2022-07-19T08:16:08;98846.31;;;29.66
60615;BMP280;46444;45.590;5.284;2022-07-19T08:18:33;98845.22;;;29.70
60615;BMP280;46444;45.590;5.284;2022-07-19T08:20:59;98845.22;;;29.70
60615;BMP280;46444;45.590;5.284;2022-07-19T08:23:25;98846.13;;;29.74
60615;BMP280;46444;45.590;5.284;2022-07-19T08:25:50;98837.13;;;29.96
60615;BMP280;46444;45.590;5.284;2022-07-19T08:28:16;98845.84;;;29.98
60615;BMP280;46444;45.590;5.284;2022-07-19T08:30:41;98842.81;;;30.03
60615;BMP280;46444;45.590;5.284;2022-07-19T08:33:08;98831.94;;;30.10
60615;BMP280;46444;45.590;5.284;2022-07-19T08:35:36;98835.94;;;30.13
60615;BMP280;46444;45.590;5.284;2022-07-19T08:38:02;98842.41;;;30.20
60615;BMP280;46444;45.590;5.284;2022-07-19T08:40:33;98838.44;;;30.40
60615;BMP280;46444;45.590;5.284;2022-07-19T08:43:05;98839.56;;;30.36
60615;BMP280;46444;45.590;5.284;2022-07-19T08:45:30;98834.88;;;30.40
60615;BMP280;46444;45.590;5.284;2022-07-19T08:47:57;98839.06;;;30.53
60615;BMP280;46444;45.590;5.284;2022-07-19T08:50:25;98827.06;;;30.42
60615;BMP280;46444;45.590;5.284;2022-07-19T08:52:51;98835.69;;;30.40
60615;BMP280;46444;45.590;5.284;2022-07-19T08:55:17;98826.03;;;30.50
60615;BMP280;46444;45.590;5.284;2022-07-19T08:57:42;98831.25;;;30.55
60615;BMP280;46444;45.590;5.284;2022-07-19T09:00:27;98835.94;;;30.54
60615;BMP280;46444;45.590;5.284;2022-07-19T09:03:01;98839.56;;;30.58
60615;BMP280;46444;45.590;5.284;2022-07-19T09:05:27;98830.75;;;30.68
60615;BMP280;46444;45.590;5.284;2022-07-19T09:08:19;98832.25;;;30.66
60615;BMP280;46444;45.590;5.284;2022-07-19T09:10:48;98837.03;;;30.69
60615;BMP280;46444;45.590;5.284;2022-07-19T09:13:32;98839.06;;;30.72
60615;BMP280;46444;45.590;5.284;2022-07-19T09:16:01;98815.59;;;30.81
60615;BMP280;46444;45.590;5.284;2022-07-19T09:18:29;98834.03;;;30.77
60615;BMP280;46444;45.590;5.284;2022-07-19T09:21:01;98839.72;;;30.88
60615;BMP280;46444;45.590;5.284;2022-07-19T09:23:33;98823.69;;;30.93
60615;BMP280;46444;45.590;5.284;2022-07-19T09:26:03;98821.38;;;30.99
60615;BMP280;46444;45.590;5.284;2022-07-19T09:28:35;98815.19;;;31.05
60615;BMP280;46444;45.590;5.284;2022-07-19T09:31:00;98811.22;;;31.03
60615;BMP280;46444;45.590;5.284;2022-07-19T09:33:29;98814.63;;;30.96
60615;BMP280;46444;45.590;5.284;2022-07-19T09:35:57;98809.56;;;30.98
60615;BMP280;46444;45.590;5.284;2022-07-19T09:40:52;98805.78;;;31.10
60615;BMP280;46444;45.590;5.284;2022-07-19T09:43:19;98803.09;;;31.13
60615;BMP280;46444;45.590;5.284;2022-07-19T09:45:45;98796.25;;;31.30
60615;BMP280;46444;45.590;5.284;2022-07-19T09:48:14;98789.91;;;31.26
60615;BMP280;46444;45.590;5.284;2022-07-19T09:50:40;98795.34;;;31.48
60615;BMP280;46444;45.590;5.284;2022-07-19T09:53:09;98785.47;;;31.47
60615;BMP280;46444;45.590;5.284;2022-07-19T09:55:37;98788.78;;;31.60
60615;BMP280;46444;45.590;5.284;2022-07-19T09:58:04;98783.56;;;31.51
60615;BMP280;46444;45.590;5.284;2022-07-19T10:00:30;98790.00;;;31.62
60615;BMP280;46444;45.590;5.284;2022-07-19T10:03:01;98772.16;;;31.56
60615;BMP280;46444;45.590;5.284;2022-07-19T10:05:28;98773.44;;;31.62
60615;BMP280;46444;45.590;5.284;2022-07-19T10:07:54;98773.97;;;31.71
60615;BMP280;46444;45.590;5.284;2022-07-19T10:10:21;98772.41;;;32.03
60615;BMP280;46444;45.590;5.284;2022-07-19T10:12:47;98777.72;;;31.86
60615;BMP280;46444;45.590;5.284;2022-07-19T10:15:17;98774.59;;;31.87
60615;BMP280;46444;45.590;5.284;2022-07-19T10:18:08;98773.03;;;31.90
60615;BMP280;46444;45.590;5.284;2022-07-19T10:20:36;98764.44;;;31.98
60615;BMP280;46444;45.590;5.284;2022-07-19T10:23:02;98765.69;;;32.04
60615;BMP280;46444;45.590;5.284;2022-07-19T10:25:45;98762.19;;;32.07
60615;BMP280;46444;45.590;5.284;2022-07-19T10:28:29;98762.59;;;32.09
60615;BMP280;46444;45.590;5.284;2022-07-19T10:30:55;98761.00;;;32.08
60615;BMP280;46444;45.590;5.284;2022-07-19T10:33:35;98755.06;;;32.06
60615;BMP280;46444;45.590;5.284;2022-07-19T10:36:38;98754.78;;;32.15
60615;BMP280;46444;45.590;5.284;2022-07-19T10:39:27;98755.31;;;32.27
60615;BMP280;46444;45.590;5.284;2022-07-19T10:42:19;98744.88;;;32.50
60615;BMP280;46444;45.590;5.284;2022-07-19T10:47:21;98738.47;;;32.43
60615;BMP280;46444;45.590;5.284;2022-07-19T10:49:47;98738.84;;;32.38
60615;BMP280;46444;45.590;5.284;2022-07-19T10:57:45;98725.97;;;32.59
60615;BMP280;46444;45.590;5.284;2022-07-19T11:00:22;98737.09;;;32.66
60615;BMP280;46444;45.590;5.284;2022-07-19T11:02:50;98723.84;;;32.86
60615;BMP280;46444;45.590;5.284;2022-07-19T11:05:29;98712.66;;;32.75
60615;BMP280;46444;45.590;5.284;2022-07-19T11:07:56;98725.28;;;32.73
60615;BMP280;46444;45.590;5.284;2022-07-19T11:10:28;98720.19;;;32.75
60615;BMP280;46444;45.590;5.284;2022-07-19T11:12:55;98710.28;;;32.74
60615;BMP280;46444;45.590;5.284;2022-07-19T11:15:21;98717.50;;;32.82
60615;BMP280;46444;45.590;5.284;2022-07-19T11:20:17;98715.56;;;32.89
60615;BMP280;46444;45.590;5.284;2022-07-19T11:22:46;98717.97;;;32.94
60615;BMP280;46444;45.590;5.284;2022-07-19T11:25:14;98702.22;;;33.09
60615;BMP280;46444;45.590;5.284;2022-07-19T11:27:42;98702.22;;;33.05
60615;BMP280;46444;45.590;5.284;2022-07-19T11:30:08;98699.47;;;33.09
60615;BMP280;46444;45.590;5.284;2022-07-19T11:32:34;98697.97;;;33.22
60615;BMP280;46444;45.590;5.284;2022-07-19T11:35:03;98705.66;;;33.46
60615;BMP280;46444;45.590;5.284;2022-07-19T11:37:31;98681.81;;;33.34
60615;BMP280;46444;45.590;5.284;2022-07-19T11:39:57;98690.13;;;33.34
60615;BMP280;46444;45.590;5.284;2022-07-19T11:45:07;98694.94;;;33.44
60615;BMP280;46444;45.590;5.284;2022-07-19T11:47:33;98683.88;;;33.51
60615;BMP280;46444;45.590;5.284;2022-07-19T11:50:06;98680.72;;;33.49
60615;BMP280;46444;45.590;5.284;2022-07-19T11:52:54;98686.28;;;33.56
60615;BMP280;46444;45.590;5.284;2022-07-19T11:55:22;98684.72;;;33.66
60615;BMP280;46444;45.590;5.284;2022-07-19T11:57:49;98676.81;;;33.71
60615;BMP280;46444;45.590;5.284;2022-07-19T12:00:15;98686.00;;;33.82
60615;BMP280;46444;45.590;5.284;2022-07-19T12:02:59;98675.69;;;33.79
60615;BMP280;46444;45.590;5.284;2022-07-19T12:05:31;98680.06;;;33.94
60615;BMP280;46444;45.590;5.284;2022-07-19T12:07:59;98676.53;;;33.87
60615;BMP280;46444;45.590;5.284;2022-07-19T12:10:57;98678.09;;;33.91
60615;BMP280;46444;45.590;5.284;2022-07-19T12:13:29;98657.94;;;34.05
60615;BMP280;46444;45.590;5.284;2022-07-19T12:15:58;98659.13;;;34.14
60615;BMP280;46444;45.590;5.284;2022-07-19T12:18:52;98667.03;;;34.09
60615;BMP280;46444;45.590;5.284;2022-07-19T12:21:40;98653.97;;;34.16
60615;BMP280;46444;45.590;5.284;2022-07-19T12:27:04;98657.56;;;34.24
60615;BMP280;46444;45.590;5.284;2022-07-19T12:31:58;98640.91;;;34.45
60615;BMP280;46444;45.590;5.284;2022-07-19T12:34:24;98636.56;;;34.37
60615;BMP280;46444;45.590;5.284;2022-07-19T12:36:49;98625.47;;;34.37
60615;BMP280;46444;45.590;5.284;2022-07-19T12:39:27;98633.41;;;34.42
60615;BMP280;46444;45.590;5.284;2022-07-19T12:42:00;98626.22;;;34.62
60615;BMP280;46444;45.590;5.284;2022-07-19T12:44:26;98635.75;;;34.64
60615;BMP280;46444;45.590;5.284;2022-07-19T12:46:53;98625.44;;;34.68
60615;BMP280;46444;45.590;5.284;2022-07-19T12:49:18;98627.03;;;34.80
60615;BMP280;46444;45.590;5.284;2022-07-19T12:51:44;98616.72;;;34.80
60615;BMP280;46444;45.590;5.284;2022-07-19T12:54:10;98620.69;;;34.79
60615;BMP280;46444;45.590;5.284;2022-07-19T12:56:37;98617.41;;;35.08
60615;BMP280;46444;45.590;5.284;2022-07-19T12:59:02;98632.97;;;34.92
60615;BMP280;46444;45.590;5.284;2022-07-19T13:01:46;98614.28;;;34.96
60615;BMP280;46444;45.590;5.284;2022-07-19T13:04:11;98611.88;;;35.05
60615;BMP280;46444;45.590;5.284;2022-07-19T13:06:37;98600.31;;;35.24
60615;BMP280;46444;45.590;5.284;2022-07-19T13:09:02;98603.53;;;35.12
60615;BMP280;46444;45.590;5.284;2022-07-19T13:11:27;98601.13;;;35.21
60615;BMP280;46444;45.590;5.284;2022-07-19T13:13:53;98609.69;;;35.58
60615;BMP280;46444;45.590;5.284;2022-07-19T13:16:18;98599.44;;;35.41
60615;BMP280;46444;45.590;5.284;2022-07-19T13:18:46;98601.81;;;35.46
60615;BMP280;46444;45.590;5.284;2022-07-19T13:21:12;98587.13;;;35.42
60615;BMP280;46444;45.590;5.284;2022-07-19T13:23:37;98591.91;;;35.45
60615;BMP280;46444;45.590;5.284;2022-07-19T13:26:03;98587.09;;;35.49
60615;BMP280;46444;45.590;5.284;2022-07-19T13:28:28;98577.56;;;35.53
60615;BMP280;46444;45.590;5.284;2022-07-19T13:30:53;98589.44;;;35.54
60615;BMP280;46444;45.590;5.284;2022-07-19T13:33:19;98591.75;;;35.66
60615;BMP280;46444;45.590;5.284;2022-07-19T13:35:44;98585.41;;;35.69
60615;BMP280;46444;45.590;5.284;2022-07-19T13:38:09;98577.06;;;35.69
60615;BMP280;46444;45.590;5.284;2022-07-19T13:40:35;98573.47;;;35.72
60615;BMP280;46444;45.590;5.284;2022-07-19T13:43:00;98582.50;;;35.86
60615;BMP280;46444;45.590;5.284;2022-07-19T13:45:26;98574.16;;;35.86
60615;BMP280;46444;45.590;5.284;2022-07-19T13:47:52;98577.31;;;35.92
60615;BMP280;46444;45.590;5.284;2022-07-19T13:50:17;98579.66;;;35.97
60615;BMP280;46444;45.590;5.284;2022-07-19T13:52:42;98571.59;;;36.09
60615;BMP280;46444;45.590;5.284;2022-07-19T13:55:08;98557.66;;;36.13
60615;BMP280;46444;45.590;5.284;2022-07-19T13:57:34;98556.53;;;36.07
60615;BMP280;46444;45.590;5.284;2022-07-19T13:59:59;98553.31;;;36.12
60615;BMP280;46444;45.590;5.284;2022-07-19T14:02:25;98560.41;;;36.20
60615;BMP280;46444;45.590;5.284;2022-07-19T14:04:50;98556.75;;;36.30
60615;BMP280;46444;45.590;5.284;2022-07-19T14:07:16;98562.31;;;36.30
60615;BMP280;46444;45.590;5.284;2022-07-19T14:09:41;98553.94;;;36.33
60615;BMP280;46444;45.590;5.284;2022-07-19T14:12:07;98556.31;;;36.35
60615;BMP280;46444;45.590;5.284;2022-07-19T14:14:32;98549.97;;;36.31
60615;BMP280;46444;45.590;5.284;2022-07-19T14:16:57;98558.13;;;36.52
60615;BMP280;46444;45.590;5.284;2022-07-19T14:19:23;98550.13;;;36.54
60615;BMP280;46444;45.590;5.284;2022-07-19T14:21:48;98544.22;;;36.52
60615;BMP280;46444;45.590;5.284;2022-07-19T14:24:13;98541.09;;;36.43
60615;BMP280;46444;45.590;5.284;2022-07-19T14:26:39;98549.78;;;36.52
60615;BMP280;46444;45.590;5.284;2022-07-19T14:29:04;98540.97;;;36.53